sensor_id;sensor_type;location;lat;lon;timestamp;pressure;altitude;pressure_sealevel;temperature;humidity
7109;BME280;29079;41.930;25.558;2023-03-14T00:02:01;100074.22;;;2.43;60.67
7109;BME280;29079;41.930;25.558;2023-03-14T00:04:34;100068.03;;;2.44;60.33
7109;BME280;29079;41.930;25.558;2023-03-14T00:07:09;100058.56;;;2.40;60.93
7109;BME280;29079;41.930;25.558;2023-03-14T00:09:42;100051.44;;;2.42;60.36
7109;BME280;29079;41.930;25.558;2023-03-14T00:12:17;100040.13;;;2.40;60.29
7109;BME280;29079;41.930;25.558;2023-03-14T00:14:51;100046.84;;;2.26;60.44
7109;BME280;29079;41.930;25.558;2023-03-14T00:17:26;100045.66;;;2.34;60.41
7109;BME280;29079;41.930;25.558;2023-03-14T00:19:59;100048.88;;;2.21;61.66
7109;BME280;29079;41.930;25.558;2023-03-14T00:22:36;100048.44;;;2.31;61.02
7109;BME280;29079;41.930;25.558;2023-03-14T00:25:10;100053.28;;;2.21;60.91
7109;BME280;29079;41.930;25.558;2023-03-14T00:27:43;100053.06;;;2.25;62.02
7109;BME280;29079;41.930;25.558;2023-03-14T00:30:16;100058.41;;;2.24;61.45
7109;BME280;29079;41.930;25.558;2023-03-14T00:32:51;100055.41;;;2.13;60.65
7109;BME280;29079;41.930;25.558;2023-03-14T00:35:24;100056.84;;;2.20;61.07
7109;BME280;29079;41.930;25.558;2023-03-14T00:37:57;100051.88;;;2.14;60.57
7109;BME280;29079;41.930;25.558;2023-03-14T00:40:30;100048.72;;;2.05;60.88
7109;BME280;29079;41.930;25.558;2023-03-14T00:43:03;100040.19;;;2.19;60.89
7109;BME280;29079;41.930;25.558;2023-03-14T00:45:36;100038.25;;;2.04;61.04
7109;BME280;29079;41.930;25.558;2023-03-14T00:48:11;100041.16;;;1.98;61.15
7109;BME280;29079;41.930;25.558;2023-03-14T00:50:45;100033.34;;;2.15;59.74
7109;BME280;29079;41.930;25.558;2023-03-14T00:53:18;100025.47;;;1.95;60.69
7109;BME280;29079;41.930;25.558;2023-03-14T00:55:51;100029.28;;;2.08;61.17
7109;BME280;29079;41.930;25.558;2023-03-14T00:58:24;100027.28;;;2.13;60.29
7109;BME280;29079;41.930;25.558;2023-03-14T01:00:58;100017.75;;;2.11;60.80
7109;BME280;29079;41.930;25.558;2023-03-14T01:03:32;100012.56;;;2.09;61.40
7109;BME280;29079;41.930;25.558;2023-03-14T01:06:06;100008.84;;;1.94;61.28
7109;BME280;29079;41.930;25.558;2023-03-14T01:08:40;100009.56;;;1.98;60.96
7109;BME280;29079;41.930;25.558;2023-03-14T01:11:14;100005.38;;;1.94;61.03
7109;BME280;29079;41.930;25.558;2023-03-14T01:13:47;100007.34;;;1.88;60.73
7109;BME280;29079;41.930;25.558;2023-03-14T01:16:22;100011.22;;;1.61;61.21
7109;BME280;29079;41.930;25.558;2023-03-14T01:18:58;100006.44;;;1.50;62.49
7109;BME280;29079;41.930;25.558;2023-03-14T01:21:32;100000.91;;;1.56;62.63
7109;BME280;29079;41.930;25.558;2023-03-14T01:24:05;99998.16;;;1.38;62.72
7109;BME280;29079;41.930;25.558;2023-03-14T01:26:38;100007.44;;;1.27;63.69
7109;BME280;29079;41.930;25.558;2023-03-14T01:29:11;99997.31;;;1.38;63.28
7109;BME280;29079;41.930;25.558;2023-03-14T01:31:44;100003.19;;;1.43;62.98
7109;BME280;29079;41.930;25.558;2023-03-14T01:34:19;99993.28;;;1.29;63.22
7109;BME280;29079;41.930;25.558;2023-03-14T01:36:52;99995.69;;;1.13;64.13
7109;BME280;29079;41.930;25.558;2023-03-14T01:39:25;99993.19;;;1.10;63.58
7109;BME280;29079;41.930;25.558;2023-03-14T01:42:00;99984.94;;;1.19;63.54
7109;BME280;29079;41.930;25.558;2023-03-14T01:44:46;99986.13;;;1.33;63.01
7109;BME280;29079;41.930;25.558;2023-03-14T01:47:20;99981.78;;;1.32;63.00
7109;BME280;29079;41.930;25.558;2023-03-14T01:49:55;99983.34;;;1.15;63.19
7109;BME280;29079;41.930;25.558;2023-03-14T01:52:31;99979.91;;;1.13;63.89
7109;BME280;29079;41.930;25.558;2023-03-14T01:55:07;99975.91;;;1.04;63.46
7109;BME280;29079;41.930;25.558;2023-03-14T01:57:42;99986.34;;;0.85;63.38
7109;BME280;29079;41.930;25.558;2023-03-14T02:00:17;99976.66;;;0.88;64.43
7109;BME280;29079;41.930;25.558;2023-03-14T02:02:51;99972.56;;;0.80;64.21
7109;BME280;29079;41.930;25.558;2023-03-14T02:05:26;99967.72;;;0.69;64.80
7109;BME280;29079;41.930;25.558;2023-03-14T02:08:02;99974.75;;;0.69;64.20
7109;BME280;29079;41.930;25.558;2023-03-14T02:10:38;99974.91;;;0.66;64.27
7109;BME280;29079;41.930;25.558;2023-03-14T02:13:12;99973.41;;;0.81;63.72
7109;BME280;29079;41.930;25.558;2023-03-14T02:15:46;99978.84;;;0.76;63.67
7109;BME280;29079;41.930;25.558;2023-03-14T02:18:20;99984.72;;;0.61;64.76
7109;BME280;29079;41.930;25.558;2023-03-14T02:20:55;99978.44;;;0.65;64.92
7109;BME280;29079;41.930;25.558;2023-03-14T02:23:32;99983.03;;;0.60;64.56
7109;BME280;29079;41.930;25.558;2023-03-14T02:26:09;99979.78;;;0.53;64.97
7109;BME280;29079;41.930;25.558;2023-03-14T02:28:45;99983.50;;;0.47;64.81
7109;BME280;29079;41.930;25.558;2023-03-14T02:31:19;99964.94;;;0.30;65.41
7109;BME280;29079;41.930;25.558;2023-03-14T02:33:54;99985.41;;;0.44;65.84
7109;BME280;29079;41.930;25.558;2023-03-14T02:36:28;99983.94;;;0.59;65.07
7109;BME280;29079;41.930;25.558;2023-03-14T02:39:05;99987.84;;;0.71;64.06
7109;BME280;29079;41.930;25.558;2023-03-14T02:41:40;99981.13;;;0.63;65.16
7109;BME280;29079;41.930;25.558;2023-03-14T02:44:15;99979.47;;;0.61;65.11
7109;BME280;29079;41.930;25.558;2023-03-14T02:46:48;99971.28;;;0.46;65.43
7109;BME280;29079;41.930;25.558;2023-03-14T02:49:22;99974.53;;;0.53;65.94
7109;BME280;29079;41.930;25.558;2023-03-14T02:51:55;99974.91;;;0.66;64.92
7109;BME280;29079;41.930;25.558;2023-03-14T02:54:28;99971.84;;;0.55;65.60
7109;BME280;29079;41.930;25.558;2023-03-14T02:57:02;99971.28;;;0.68;64.81
7109;BME280;29079;41.930;25.558;2023-03-14T02:59:38;99968.38;;;0.54;64.63
7109;BME280;29079;41.930;25.558;2023-03-14T03:02:11;99975.50;;;0.28;65.66
7109;BME280;29079;41.930;25.558;2023-03-14T03:04:44;99973.72;;;0.29;66.03
7109;BME280;29079;41.930;25.558;2023-03-14T03:07:17;99963.78;;;0.15;65.87
7109;BME280;29079;41.930;25.558;2023-03-14T03:09:51;99967.81;;;0.46;65.60
7109;BME280;29079;41.930;25.558;2023-03-14T03:12:24;99965.13;;;0.25;65.64
7109;BME280;29079;41.930;25.558;2023-03-14T03:15:00;99970.50;;;0.44;65.02
7109;BME280;29079;41.930;25.558;2023-03-14T03:17:33;99965.84;;;0.29;66.00
7109;BME280;29079;41.930;25.558;2023-03-14T03:20:07;99961.22;;;0.13;66.21
7109;BME280;29079;41.930;25.558;2023-03-14T03:22:40;99964.03;;;0.09;65.51
7109;BME280;29079;41.930;25.558;2023-03-14T03:25:13;99962.56;;;0.02;66.07
7109;BME280;29079;41.930;25.558;2023-03-14T03:27:46;99964.13;;;0.06;66.35
7109;BME280;29079;41.930;25.558;2023-03-14T03:30:21;99956.44;;;0.23;65.46
7109;BME280;29079;41.930;25.558;2023-03-14T03:32:54;99964.59;;;-0.07;66.09
7109;BME280;29079;41.930;25.558;2023-03-14T03:35:28;99952.28;;;-0.05;65.96
7109;BME280;29079;41.930;25.558;2023-03-14T03:38:01;99961.00;;;-0.04;66.29
7109;BME280;29079;41.930;25.558;2023-03-14T03:40:34;99961.00;;;-0.04;66.56
7109;BME280;29079;41.930;25.558;2023-03-14T03:43:07;99970.31;;;-0.19;66.98
7109;BME280;29079;41.930;25.558;2023-03-14T03:45:41;99970.09;;;-0.13;66.53
7109;BME280;29079;41.930;25.558;2023-03-14T03:48:17;99972.88;;;-0.18;67.70
7109;BME280;29079;41.930;25.558;2023-03-14T03:50:50;99970.50;;;0.00;66.83
7109;BME280;29079;41.930;25.558;2023-03-14T03:53:23;99976.81;;;-0.06;66.12
7109;BME280;29079;41.930;25.558;2023-03-14T03:56:04;99973.25;;;-0.05;66.68
7109;BME280;29079;41.930;25.558;2023-03-14T03:58:37;99969.78;;;-0.05;66.11
7109;BME280;29079;41.930;25.558;2023-03-14T04:01:12;99964.69;;;-0.32;67.05
7109;BME280;29079;41.930;25.558;2023-03-14T04:03:45;99964.72;;;-0.10;67.25
7109;BME280;29079;41.930;25.558;2023-03-14T04:06:18;99969.72;;;-0.04;66.77
7109;BME280;29079;41.930;25.558;2023-03-14T04:08:51;99967.56;;;0.08;65.98
7109;BME280;29079;41.930;25.558;2023-03-14T04:11:26;99965.16;;;-0.22;67.07
7109;BME280;29079;41.930;25.558;2023-03-14T04:13:59;99970.94;;;-0.12;67.59
7109;BME280;29079;41.930;25.558;2023-03-14T04:16:34;99970.00;;;-0.35;67.95
7109;BME280;29079;41.930;25.558;2023-03-14T04:19:07;99976.69;;;-0.03;67.12
7109;BME280;29079;41.930;25.558;2023-03-14T04:21:41;99972.66;;;-0.11;66.96
7109;BME280;29079;41.930;25.558;2023-03-14T04:24:16;99970.88;;;-0.11;66.57
7109;BME280;29079;41.930;25.558;2023-03-14T04:26:49;99975.75;;;-0.02;67.47
7109;BME280;29079;41.930;25.558;2023-03-14T04:29:22;99973.97;;;0.23;65.71
7109;BME280;29079;41.930;25.558;2023-03-14T04:31:57;99977.66;;;-0.05;66.60
7109;BME280;29079;41.930;25.558;2023-03-14T04:34:30;99979.03;;;-0.19;67.49
7109;BME280;29079;41.930;25.558;2023-03-14T04:37:03;99979.16;;;-0.22;68.37
7109;BME280;29079;41.930;25.558;2023-03-14T04:39:36;99979.22;;;-0.23;67.78
7109;BME280;29079;41.930;25.558;2023-03-14T04:42:09;99974.81;;;-0.23;67.20
7109;BME280;29079;41.930;25.558;2023-03-14T04:44:42;99969.69;;;-0.26;67.22
7109;BME280;29079;41.930;25.558;2023-03-14T04:47:17;99966.53;;;-0.36;67.05
7109;BME280;29079;41.930;25.558;2023-03-14T04:49:50;99960.88;;;-0.25;66.92
7109;BME280;29079;41.930;25.558;2023-03-14T04:52:23;99971.84;;;-0.37;67.43
7109;BME280;29079;41.930;25.558;2023-03-14T04:54:56;99965.16;;;-0.22;66.80
7109;BME280;29079;41.930;25.558;2023-03-14T04:57:29;99972.38;;;-0.27;67.69
7109;BME280;29079;41.930;25.558;2023-03-14T05:00:02;99965.09;;;-0.21;67.17
7109;BME280;29079;41.930;25.558;2023-03-14T05:02:40;99965.81;;;-0.15;66.95
7109;BME280;29079;41.930;25.558;2023-03-14T05:05:13;99962.47;;;-0.21;67.04
7109;BME280;29079;41.930;25.558;2023-03-14T05:07:46;99964.44;;;-0.02;66.77
7109;BME280;29079;41.930;25.558;2023-03-14T05:10:19;99969.50;;;0.03;67.75
7109;BME280;29079;41.930;25.558;2023-03-14T05:12:53;99967.19;;;0.17;66.40
7109;BME280;29079;41.930;25.558;2023-03-14T05:15:26;99963.59;;;0.20;67.16
7109;BME280;29079;41.930;25.558;2023-03-14T05:18:01;99972.94;;;0.27;66.64
7109;BME280;29079;41.930;25.558;2023-03-14T05:20:34;99964.81;;;0.11;66.05
7109;BME280;29079;41.930;25.558;2023-03-14T05:23:08;99961.59;;;0.26;65.91
7109;BME280;29079;41.930;25.558;2023-03-14T05:25:42;99963.53;;;0.43;66.36
7109;BME280;29079;41.930;25.558;2023-03-14T05:28:15;99959.50;;;0.57;66.13
7109;BME280;29079;41.930;25.558;2023-03-14T05:30:48;99951.66;;;0.77;65.11
7109;BME280;29079;41.930;25.558;2023-03-14T05:33:23;99962.91;;;0.81;65.47
7109;BME280;29079;41.930;25.558;2023-03-14T05:35:56;99957.84;;;0.97;64.14
7109;BME280;29079;41.930;25.558;2023-03-14T05:38:29;99959.91;;;1.11;64.47
7109;BME280;29079;41.930;25.558;2023-03-14T05:41:04;99954.28;;;1.39;64.05
7109;BME280;29079;41.930;25.558;2023-03-14T05:43:37;99960.59;;;1.35;63.45
7109;BME280;29079;41.930;25.558;2023-03-14T05:46:11;99955.03;;;1.22;64.38
7109;BME280;29079;41.930;25.558;2023-03-14T05:48:45;99954.00;;;1.45;63.55
7109;BME280;29079;41.930;25.558;2023-03-14T05:51:19;99949.22;;;1.34;63.78
7109;BME280;29079;41.930;25.558;2023-03-14T05:53:52;99948.22;;;1.58;64.19
7109;BME280;29079;41.930;25.558;2023-03-14T05:56:25;99943.53;;;1.64;62.97
7109;BME280;29079;41.930;25.558;2023-03-14T05:58:59;99942.56;;;1.46;63.79
7109;BME280;29079;41.930;25.558;2023-03-14T06:01:34;99945.00;;;1.70;63.03
7109;BME280;29079;41.930;25.558;2023-03-14T06:04:08;99945.38;;;1.81;63.79
7109;BME280;29079;41.930;25.558;2023-03-14T06:06:41;99953.94;;;1.86;63.14
7109;BME280;29079;41.930;25.558;2023-03-14T06:09:14;99935.16;;;1.94;64.45
7109;BME280;29079;41.930;25.558;2023-03-14T06:11:49;99945.72;;;2.12;63.57
7109;BME280;29079;41.930;25.558;2023-03-14T06:14:22;99934.00;;;2.19;63.59
7109;BME280;29079;41.930;25.558;2023-03-14T06:16:55;99935.25;;;2.29;63.90
7109;BME280;29079;41.930;25.558;2023-03-14T06:19:32;99940.81;;;2.23;63.75
7109;BME280;29079;41.930;25.558;2023-03-14T06:22:05;99931.81;;;2.46;63.43
7109;BME280;29079;41.930;25.558;2023-03-14T06:24:38;99935.81;;;2.36;64.09
7109;BME280;29079;41.930;25.558;2023-03-14T06:27:11;99938.50;;;2.71;63.32
7109;BME280;29079;41.930;25.558;2023-03-14T06:29:44;99940.19;;;2.54;62.92
7109;BME280;29079;41.930;25.558;2023-03-14T06:32:17;99936.94;;;2.67;62.88
7109;BME280;29079;41.930;25.558;2023-03-14T06:34:53;99937.25;;;2.60;62.65
7109;BME280;29079;41.930;25.558;2023-03-14T06:37:27;99937.75;;;2.50;62.69
7109;BME280;29079;41.930;25.558;2023-03-14T06:40:01;99937.50;;;2.91;61.30
7109;BME280;29079;41.930;25.558;2023-03-14T06:42:35;99937.50;;;3.08;61.84
7109;BME280;29079;41.930;25.558;2023-03-14T06:45:08;99939.03;;;3.30;62.55
7109;BME280;29079;41.930;25.558;2023-03-14T06:47:41;99939.38;;;3.40;61.06
7109;BME280;29079;41.930;25.558;2023-03-14T06:50:16;99940.00;;;3.45;60.50
7109;BME280;29079;41.930;25.558;2023-03-14T06:52:49;99932.75;;;3.66;60.44
7109;BME280;29079;41.930;25.558;2023-03-14T06:55:22;99940.16;;;3.75;60.31
7109;BME280;29079;41.930;25.558;2023-03-14T06:57:55;99946.66;;;3.86;60.15
7109;BME280;29079;41.930;25.558;2023-03-14T07:00:28;99940.63;;;3.99;59.60
7109;BME280;29079;41.930;25.558;2023-03-14T07:03:02;99948.03;;;4.09;60.69
7109;BME280;29079;41.930;25.558;2023-03-14T07:05:36;99941.38;;;4.17;60.33
7109;BME280;29079;41.930;25.558;2023-03-14T07:08:12;99933.53;;;4.32;60.21
7109;BME280;29079;41.930;25.558;2023-03-14T07:10:45;99936.63;;;4.24;59.32
7109;BME280;29079;41.930;25.558;2023-03-14T07:13:18;99932.69;;;4.31;59.29
7109;BME280;29079;41.930;25.558;2023-03-14T07:15:52;99930.19;;;4.44;59.34
7109;BME280;29079;41.930;25.558;2023-03-14T07:18:26;99937.59;;;4.53;59.57
7109;BME280;29079;41.930;25.558;2023-03-14T07:21:00;99919.50;;;4.62;59.40
7109;BME280;29079;41.930;25.558;2023-03-14T07:23:33;99921.53;;;4.73;57.78
7109;BME280;29079;41.930;25.558;2023-03-14T07:26:07;99916.56;;;4.82;57.47
7109;BME280;29079;41.930;25.558;2023-03-14T07:28:40;99922.31;;;4.89;57.07
7109;BME280;29079;41.930;25.558;2023-03-14T07:31:14;99918.06;;;4.86;55.71
7109;BME280;29079;41.930;25.558;2023-03-14T07:33:47;99920.28;;;4.94;56.25
7109;BME280;29079;41.930;25.558;2023-03-14T07:36:22;99916.50;;;4.98;56.57
7109;BME280;29079;41.930;25.558;2023-03-14T07:38:55;99911.06;;;5.16;56.52
7109;BME280;29079;41.930;25.558;2023-03-14T07:41:28;99908.53;;;5.29;55.95
7109;BME280;29079;41.930;25.558;2023-03-14T07:44:01;99911.16;;;5.14;56.12
7109;BME280;29079;41.930;25.558;2023-03-14T07:46:35;99907.84;;;5.25;56.41
7109;BME280;29079;41.930;25.558;2023-03-14T07:49:08;99908.25;;;5.33;56.89
7109;BME280;29079;41.930;25.558;2023-03-14T07:51:42;99905.84;;;5.43;55.50
7109;BME280;29079;41.930;25.558;2023-03-14T07:54:16;99894.03;;;5.49;55.47
7109;BME280;29079;41.930;25.558;2023-03-14T07:56:51;99900.66;;;5.41;53.69
7109;BME280;29079;41.930;25.558;2023-03-14T07:59:25;99892.56;;;5.45;53.25
7109;BME280;29079;41.930;25.558;2023-03-14T08:01:58;99895.38;;;5.41;54.50
7109;BME280;29079;41.930;25.558;2023-03-14T08:04:32;99891.69;;;5.58;54.51
7109;BME280;29079;41.930;25.558;2023-03-14T08:07:06;99892.69;;;5.85;53.70
7109;BME280;29079;41.930;25.558;2023-03-14T08:09:40;99888.25;;;5.85;54.15
7109;BME280;29079;41.930;25.558;2023-03-14T08:12:14;99887.38;;;6.14;53.81
7109;BME280;29079;41.930;25.558;2023-03-14T08:14:50;99873.66;;;6.34;55.42
7109;BME280;29079;41.930;25.558;2023-03-14T08:17:24;99872.91;;;6.32;53.20
7109;BME280;29079;41.930;25.558;2023-03-14T08:19:59;99868.03;;;6.26;52.33
7109;BME280;29079;41.930;25.558;2023-03-14T08:22:33;99863.41;;;6.42;54.02
7109;BME280;29079;41.930;25.558;2023-03-14T08:25:07;99857.47;;;6.52;53.98
7109;BME280;29079;41.930;25.558;2023-03-14T08:27:41;99851.25;;;6.66;53.61
7109;BME280;29079;41.930;25.558;2023-03-14T08:30:15;99853.16;;;6.51;54.00
7109;BME280;29079;41.930;25.558;2023-03-14T08:32:48;99846.91;;;6.65;54.14
7109;BME280;29079;41.930;25.558;2023-03-14T08:35:21;99848.84;;;6.75;53.31
7109;BME280;29079;41.930;25.558;2023-03-14T08:37:56;99845.22;;;6.76;53.36
7109;BME280;29079;41.930;25.558;2023-03-14T08:40:30;99840.03;;;6.75;53.82
7109;BME280;29079;41.930;25.558;2023-03-14T08:43:03;99841.88;;;7.00;52.80
7109;BME280;29079;41.930;25.558;2023-03-14T08:45:37;99835.34;;;7.30;55.35
7109;BME280;29079;41.930;25.558;2023-03-14T08:48:10;99840.22;;;7.49;51.27
7109;BME280;29079;41.930;25.558;2023-03-14T08:50:43;99834.50;;;7.42;48.22
7109;BME280;29079;41.930;25.558;2023-03-14T08:53:18;99826.94;;;7.36;48.80
7109;BME280;29079;41.930;25.558;2023-03-14T08:55:54;99828.88;;;7.34;47.91
7109;BME280;29079;41.930;25.558;2023-03-14T08:58:27;99823.03;;;7.29;45.77
7109;BME280;29079;41.930;25.558;2023-03-14T09:01:01;99818.69;;;7.41;47.29
7109;BME280;29079;41.930;25.558;2023-03-14T09:03:34;99809.34;;;7.72;46.48
7109;BME280;29079;41.930;25.558;2023-03-14T09:06:07;99814.97;;;7.80;47.30
7109;BME280;29079;41.930;25.558;2023-03-14T09:08:43;99809.03;;;8.01;49.53
7109;BME280;29079;41.930;25.558;2023-03-14T09:11:16;99764.53;;;7.92;48.82
7109;BME280;29079;41.930;25.558;2023-03-14T09:13:50;99803.13;;;8.09;44.65
7109;BME280;29079;41.930;25.558;2023-03-14T09:16:24;99808.41;;;8.22;43.55
7109;BME280;29079;41.930;25.558;2023-03-14T09:18:57;99807.31;;;8.00;43.59
7109;BME280;29079;41.930;25.558;2023-03-14T09:21:31;99799.00;;;8.29;47.48
7109;BME280;29079;41.930;25.558;2023-03-14T09:24:06;99784.91;;;8.40;48.70
7109;BME280;29079;41.930;25.558;2023-03-14T09:26:39;99789.72;;;8.34;46.38
7109;BME280;29079;41.930;25.558;2023-03-14T09:29:12;99788.47;;;8.51;44.72
7109;BME280;29079;41.930;25.558;2023-03-14T09:31:45;99780.84;;;8.58;49.92
7109;BME280;29079;41.930;25.558;2023-03-14T09:34:19;99778.34;;;8.68;46.57
7109;BME280;29079;41.930;25.558;2023-03-14T09:36:52;99768.31;;;8.36;40.34
7109;BME280;29079;41.930;25.558;2023-03-14T09:39:27;99761.97;;;8.14;38.90
7109;BME280;29079;41.930;25.558;2023-03-14T09:42:01;99767.69;;;8.45;37.92
7109;BME280;29079;41.930;25.558;2023-03-14T09:44:37;99755.59;;;8.64;43.36
7109;BME280;29079;41.930;25.558;2023-03-14T09:47:12;99756.09;;;8.58;39.05
7109;BME280;29079;41.930;25.558;2023-03-14T09:49:46;99746.19;;;8.71;40.40
7109;BME280;29079;41.930;25.558;2023-03-14T09:52:20;99745.22;;;8.72;38.54
7109;BME280;29079;41.930;25.558;2023-03-14T09:54:56;99736.50;;;8.81;38.06
7109;BME280;29079;41.930;25.558;2023-03-14T09:57:32;99735.81;;;8.91;42.63
7109;BME280;29079;41.930;25.558;2023-03-14T10:00:06;99732.16;;;9.14;44.32
7109;BME280;29079;41.930;25.558;2023-03-14T10:02:47;99724.16;;;9.37;42.50
7109;BME280;29079;41.930;25.558;2023-03-14T10:05:23;99720.75;;;9.46;40.16
7109;BME280;29079;41.930;25.558;2023-03-14T10:07:57;99716.31;;;9.24;34.52
7109;BME280;29079;41.930;25.558;2023-03-14T10:10:32;99710.28;;;8.99;34.10
7109;BME280;29079;41.930;25.558;2023-03-14T10:13:10;99702.16;;;9.12;37.99
7109;BME280;29079;41.930;25.558;2023-03-14T10:15:47;99702.97;;;9.35;36.43
7109;BME280;29079;41.930;25.558;2023-03-14T10:18:21;99705.38;;;9.38;35.56
7109;BME280;29079;41.930;25.558;2023-03-14T10:21:03;99691.06;;;9.51;36.42
7109;BME280;29079;41.930;25.558;2023-03-14T10:23:36;99699.00;;;9.73;39.40
7109;BME280;29079;41.930;25.558;2023-03-14T10:26:14;99687.84;;;9.68;39.16
7109;BME280;29079;41.930;25.558;2023-03-14T10:28:48;99682.25;;;9.71;37.72
7109;BME280;29079;41.930;25.558;2023-03-14T10:31:24;99678.47;;;9.85;41.06
7109;BME280;29079;41.930;25.558;2023-03-14T10:33:58;99666.53;;;10.01;37.58
7109;BME280;29079;41.930;25.558;2023-03-14T10:36:33;99662.84;;;10.02;38.31
7109;BME280;29079;41.930;25.558;2023-03-14T10:39:18;99655.19;;;9.87;36.58
7109;BME280;29079;41.930;25.558;2023-03-14T10:42:01;99659.22;;;10.03;43.38
7109;BME280;29079;41.930;25.558;2023-03-14T10:44:36;99645.31;;;10.20;37.92
7109;BME280;29079;41.930;25.558;2023-03-14T10:47:15;99637.56;;;10.17;44.58
7109;BME280;29079;41.930;25.558;2023-03-14T10:49:50;99635.03;;;10.37;47.08
7109;BME280;29079;41.930;25.558;2023-03-14T10:52:23;99619.03;;;10.37;45.71
7109;BME280;29079;41.930;25.558;2023-03-14T10:55:12;99611.03;;;10.37;39.90
7109;BME280;29079;41.930;25.558;2023-03-14T10:57:46;99592.66;;;10.43;38.83
7109;BME280;29079;41.930;25.558;2023-03-14T11:00:20;99586.06;;;10.17;40.30
7109;BME280;29079;41.930;25.558;2023-03-14T11:02:58;99590.97;;;10.42;39.97
7109;BME280;29079;41.930;25.558;2023-03-14T11:05:36;99571.66;;;10.60;43.70
7109;BME280;29079;41.930;25.558;2023-03-14T11:08:13;99568.34;;;10.68;43.43
7109;BME280;29079;41.930;25.558;2023-03-14T11:10:51;99561.41;;;10.55;46.46
7109;BME280;29079;41.930;25.558;2023-03-14T11:13:32;99556.28;;;10.83;44.67
7109;BME280;29079;41.930;25.558;2023-03-14T11:16:09;99545.19;;;10.78;41.44
7109;BME280;29079;41.930;25.558;2023-03-14T11:18:58;99532.41;;;10.91;47.30
7109;BME280;29079;41.930;25.558;2023-03-14T11:21:35;99525.81;;;10.95;39.51
7109;BME280;29079;41.930;25.558;2023-03-14T11:26:59;99511.03;;;11.11;40.25
7109;BME280;29079;41.930;25.558;2023-03-14T11:29:39;99506.41;;;11.13;44.09
7109;BME280;29079;41.930;25.558;2023-03-14T11:32:13;99499.66;;;10.99;39.47
7109;BME280;29079;41.930;25.558;2023-03-14T11:34:49;99489.94;;;10.78;39.29
7109;BME280;29079;41.930;25.558;2023-03-14T11:37:24;99483.91;;;10.86;39.49
7109;BME280;29079;41.930;25.558;2023-03-14T11:39:59;99475.63;;;10.79;39.03
7109;BME280;29079;41.930;25.558;2023-03-14T11:42:38;99467.44;;;10.61;40.00
7109;BME280;29079;41.930;25.558;2023-03-14T11:45:17;99464.22;;;10.77;45.30
7109;BME280;29079;41.930;25.558;2023-03-14T11:47:56;99460.75;;;10.96;43.23
7109;BME280;29079;41.930;25.558;2023-03-14T11:50:32;99455.09;;;11.09;38.88
7109;BME280;29079;41.930;25.558;2023-03-14T11:53:08;99447.75;;;11.41;37.00
7109;BME280;29079;41.930;25.558;2023-03-14T11:55:43;99439.38;;;11.26;36.78
7109;BME280;29079;41.930;25.558;2023-03-14T11:58:17;99436.56;;;11.08;36.50
7109;BME280;29079;41.930;25.558;2023-03-14T12:00:53;99430.09;;;11.10;36.75
7109;BME280;29079;41.930;25.558;2023-03-14T12:03:29;99425.72;;;11.29;36.37
7109;BME280;29079;41.930;25.558;2023-03-14T12:06:09;99417.03;;;11.17;36.31
7109;BME280;29079;41.930;25.558;2023-03-14T12:08:47;99410.00;;;11.16;39.07
7109;BME280;29079;41.930;25.558;2023-03-14T12:11:32;99401.00;;;11.07;37.44
7109;BME280;29079;41.930;25.558;2023-03-14T12:17:04;99404.63;;;11.36;40.04
7109;BME280;29079;41.930;25.558;2023-03-14T12:19:39;99393.22;;;11.33;39.41
7109;BME280;29079;41.930;25.558;2023-03-14T12:22:14;99398.41;;;11.45;35.63
7109;BME280;29079;41.930;25.558;2023-03-14T12:24:50;99393.44;;;11.50;34.19
7109;BME280;29079;41.930;25.558;2023-03-14T12:27:41;99378.97;;;11.43;32.45
7109;BME280;29079;41.930;25.558;2023-03-14T12:30:17;99373.53;;;11.35;33.01
7109;BME280;29079;41.930;25.558;2023-03-14T12:33:14;99366.50;;;11.33;35.14
7109;BME280;29079;41.930;25.558;2023-03-14T12:35:52;99361.28;;;11.42;28.90
7109;BME280;29079;41.930;25.558;2023-03-14T12:38:32;99360.00;;;11.46;29.59
7109;BME280;29079;41.930;25.558;2023-03-14T12:41:13;99347.03;;;11.51;41.04
7109;BME280;29079;41.930;25.558;2023-03-14T12:43:47;99349.81;;;11.59;39.41
7109;BME280;29079;41.930;25.558;2023-03-14T12:46:21;99341.84;;;11.49;34.66
7109;BME280;29079;41.930;25.558;2023-03-14T12:48:56;99344.97;;;11.45;31.32
7109;BME280;29079;41.930;25.558;2023-03-14T12:51:37;99331.41;;;11.56;32.66
7109;BME280;29079;41.930;25.558;2023-03-14T12:54:28;99327.59;;;11.59;33.81
7109;BME280;29079;41.930;25.558;2023-03-14T12:57:13;99323.28;;;11.76;32.54
7109;BME280;29079;41.930;25.558;2023-03-14T12:59:50;99316.16;;;11.66;31.44
7109;BME280;29079;41.930;25.558;2023-03-14T13:02:24;99313.03;;;11.71;31.90
7109;BME280;29079;41.930;25.558;2023-03-14T13:05:03;99306.72;;;11.72;39.61
7109;BME280;29079;41.930;25.558;2023-03-14T13:10:25;99299.22;;;11.76;35.16
7109;BME280;29079;41.930;25.558;2023-03-14T13:13:01;99294.03;;;11.74;30.00
7109;BME280;29079;41.930;25.558;2023-03-14T13:15:38;99288.53;;;11.76;31.10
7109;BME280;29079;41.930;25.558;2023-03-14T13:18:12;99278.69;;;11.76;33.08
7109;BME280;29079;41.930;25.558;2023-03-14T13:20:48;99284.28;;;11.83;33.30
7109;BME280;29079;41.930;25.558;2023-03-14T13:23:23;99273.56;;;11.83;33.72
7109;BME280;29079;41.930;25.558;2023-03-14T13:25:57;99266.16;;;11.77;31.96
7109;BME280;29079;41.930;25.558;2023-03-14T13:28:32;99267.75;;;11.97;34.68
7109;BME280;29079;41.930;25.558;2023-03-14T13:31:12;99257.94;;;11.88;31.80
7109;BME280;29079;41.930;25.558;2023-03-14T13:33:57;99255.66;;;11.93;35.11
7109;BME280;29079;41.930;25.558;2023-03-14T13:36:32;99250.66;;;11.80;36.88
7109;BME280;29079;41.930;25.558;2023-03-14T13:39:06;99244.41;;;11.90;34.65
7109;BME280;29079;41.930;25.558;2023-03-14T13:41:44;99235.50;;;11.99;29.63
7109;BME280;29079;41.930;25.558;2023-03-14T13:44:21;99224.16;;;11.87;30.91
7109;BME280;29079;41.930;25.558;2023-03-14T13:46:57;99218.66;;;11.71;29.87
7109;BME280;29079;41.930;25.558;2023-03-14T13:49:36;99215.13;;;11.70;30.31
7109;BME280;29079;41.930;25.558;2023-03-14T13:52:24;99221.59;;;11.95;28.15
7109;BME280;29079;41.930;25.558;2023-03-14T13:55:13;99220.91;;;11.93;28.52